sensor_id;sensor_type;location;lat;lon;timestamp;pressure;altitude;pressure_sealevel;temperature;humidity
61961;BME280;47923;42.506;24.192;2024-03-17T00:00:20;95821.47;;;3.97;87.78
61961;BME280;47923;42.506;24.192;2024-03-17T00:02:46;95732.03;;;3.41;87.78
61961;BME280;47923;42.506;24.192;2024-03-17T00:05:12;95503.34;;;1.99;87.37
61961;BME280;47923;42.506;24.192;2024-03-17T00:07:38;95704.91;;;3.25;87.74
61961;BME280;47923;42.506;24.192;2024-03-17T00:10:04;95659.50;;;2.94;87.38
61961;BME280;47923;42.506;24.192;2024-03-17T00:12:30;95510.84;;;2.19;87.21
61961;BME280;47923;42.506;24.192;2024-03-17T00:14:55;95769.19;;;3.82;86.79
61961;BME280;47923;42.506;24.192;2024-03-17T00:17:20;95688.19;;;3.42;86.65
61961;BME280;47923;42.506;24.192;2024-03-17T00:19:46;95708.25;;;3.62;86.63
61961;BME280;47923;42.506;24.192;2024-03-17T00:22:12;95749.50;;;3.78;86.73
61961;BME280;47923;42.506;24.192;2024-03-17T00:24:40;95704.84;;;3.39;86.54
61961;BME280;47923;42.506;24.192;2024-03-17T00:27:06;95801.06;;;4.10;86.19
61961;BME280;47923;42.506;24.192;2024-03-17T00:29:31;95715.38;;;3.44;86.83
61961;BME280;47923;42.506;24.192;2024-03-17T00:31:57;95674.81;;;3.11;87.46
61961;BME280;47923;42.506;24.192;2024-03-17T00:34:23;95830.91;;;4.03;88.13
61961;BME280;47923;42.506;24.192;2024-03-17T00:36:48;95734.56;;;3.46;87.83
61961;BME280;47923;42.506;24.192;2024-03-17T00:39:14;95730.19;;;3.50;87.59
61961;BME280;47923;42.506;24.192;2024-03-17T00:41:40;95693.28;;;3.30;87.65
61961;BME280;47923;42.506;24.192;2024-03-17T00:44:05;95682.44;;;3.26;87.38
61961;BME280;47923;42.506;24.192;2024-03-17T00:46:31;95616.25;;;2.84;87.10
61961;BME280;47923;42.506;24.192;2024-03-17T00:48:58;95620.44;;;2.76;86.71
61961;BME280;47923;42.506;24.192;2024-03-17T00:51:23;95616.63;;;2.68;86.97
61961;BME280;47923;42.506;24.192;2024-03-17T00:53:49;95796.81;;;3.78;87.44
61961;BME280;47923;42.506;24.192;2024-03-17T00:56:14;95736.38;;;3.37;87.70
61961;BME280;47923;42.506;24.192;2024-03-17T00:58:40;95810.72;;;3.66;86.71
61961;BME280;47923;42.506;24.192;2024-03-17T01:01:06;95629.78;;;2.42;87.21
61961;BME280;47923;42.506;24.192;2024-03-17T01:03:31;95714.25;;;2.92;87.68
61961;BME280;47923;42.506;24.192;2024-03-17T01:05:57;95524.09;;;1.52;87.86
61961;BME280;47923;42.506;24.192;2024-03-17T01:08:22;95489.78;;;1.36;88.18
61961;BME280;47923;42.506;24.192;2024-03-17T01:10:48;95621.53;;;2.16;87.92
61961;BME280;47923;42.506;24.192;2024-03-17T01:13:15;95734.13;;;2.49;88.34
61961;BME280;47923;42.506;24.192;2024-03-17T01:15:41;95797.16;;;3.31;88.43
61961;BME280;47923;42.506;24.192;2024-03-17T01:18:07;95716.69;;;2.80;88.19
61961;BME280;47923;42.506;24.192;2024-03-17T01:20:34;95569.13;;;1.76;88.13
61961;BME280;47923;42.506;24.192;2024-03-17T01:23:01;95684.97;;;2.42;88.65
61961;BME280;47923;42.506;24.192;2024-03-17T01:25:27;95563.34;;;1.19;88.66
61961;BME280;47923;42.506;24.192;2024-03-17T01:27:53;95546.00;;;1.35;88.72
61961;BME280;47923;42.506;24.192;2024-03-17T01:30:18;95800.72;;;3.04;89.59
61961;BME280;47923;42.506;24.192;2024-03-17T01:32:47;95605.16;;;1.59;88.98
61961;BME280;47923;42.506;24.192;2024-03-17T01:35:12;95548.19;;;1.19;88.99
61961;BME280;47923;42.506;24.192;2024-03-17T01:37:38;95699.84;;;2.07;89.65
61961;BME280;47923;42.506;24.192;2024-03-17T01:40:05;95784.59;;;2.60;90.00
61961;BME280;47923;42.506;24.192;2024-03-17T01:42:33;95639.38;;;1.66;89.76
61961;BME280;47923;42.506;24.192;2024-03-17T01:44:59;95800.00;;;2.63;90.51
61961;BME280;47923;42.506;24.192;2024-03-17T01:47:25;95578.81;;;1.17;89.72
61961;BME280;47923;42.506;24.192;2024-03-17T01:49:51;95765.00;;;2.14;90.27
61961;BME280;47923;42.506;24.192;2024-03-17T01:52:19;95827.69;;;2.53;90.63
61961;BME280;47923;42.506;24.192;2024-03-17T01:54:46;95732.31;;;2.09;90.27
61961;BME280;47923;42.506;24.192;2024-03-17T01:57:12;95585.34;;;1.10;89.49
61961;BME280;47923;42.506;24.192;2024-03-17T01:59:38;95694.44;;;1.84;89.76
61961;BME280;47923;42.506;24.192;2024-03-17T02:02:04;95812.97;;;2.42;90.54
61961;BME280;47923;42.506;24.192;2024-03-17T02:04:31;95687.41;;;1.47;90.34
61961;BME280;47923;42.506;24.192;2024-03-17T02:06:56;95482.56;;;0.27;90.19
61961;BME280;47923;42.506;24.192;2024-03-17T02:09:22;95539.81;;;0.52;89.82
61961;BME280;47923;42.506;24.192;2024-03-17T02:11:47;95683.16;;;1.46;90.49
61961;BME280;47923;42.506;24.192;2024-03-17T02:14:13;95634.69;;;1.17;90.39
61961;BME280;47923;42.506;24.192;2024-03-17T02:16:40;95565.47;;;0.75;90.12
61961;BME280;47923;42.506;24.192;2024-03-17T02:19:05;95769.31;;;1.97;89.99
61961;BME280;47923;42.506;24.192;2024-03-17T02:21:31;95666.88;;;1.34;90.39
61961;BME280;47923;42.506;24.192;2024-03-17T02:23:56;95822.06;;;2.13;90.20
61961;BME280;47923;42.506;24.192;2024-03-17T02:26:23;95722.81;;;1.48;90.04
61961;BME280;47923;42.506;24.192;2024-03-17T02:28:49;95769.50;;;1.73;91.05
61961;BME280;47923;42.506;24.192;2024-03-17T02:31:16;95714.56;;;1.30;91.30
61961;BME280;47923;42.506;24.192;2024-03-17T02:33:42;95787.16;;;1.82;91.27
61961;BME280;47923;42.506;24.192;2024-03-17T02:36:09;95533.16;;;0.03;91.56
61961;BME280;47923;42.506;24.192;2024-03-17T02:38:38;95738.38;;;1.41;91.98
61961;BME280;47923;42.506;24.192;2024-03-17T02:41:22;95656.31;;;0.82;91.37
61961;BME280;47923;42.506;24.192;2024-03-17T02:43:48;95560.69;;;0.26;91.54
61961;BME280;47923;42.506;24.192;2024-03-17T02:46:17;95758.09;;;1.53;91.35
61961;BME280;47923;42.506;24.192;2024-03-17T02:48:47;95724.34;;;1.35;91.75
61961;BME280;47923;42.506;24.192;2024-03-17T02:51:17;95741.97;;;1.31;91.67
61961;BME280;47923;42.506;24.192;2024-03-17T02:53:44;95791.88;;;1.72;91.88
61961;BME280;47923;42.506;24.192;2024-03-17T02:56:11;95785.78;;;1.71;91.54
61961;BME280;47923;42.506;24.192;2024-03-17T02:58:37;95628.75;;;0.60;91.30
61961;BME280;47923;42.506;24.192;2024-03-17T03:01:04;95595.97;;;0.32;91.34
61961;BME280;47923;42.506;24.192;2024-03-17T03:03:33;95594.22;;;0.41;91.15
61961;BME280;47923;42.506;24.192;2024-03-17T03:05:59;95532.66;;;0.01;90.97
61961;BME280;47923;42.506;24.192;2024-03-17T03:08:32;95736.66;;;1.31;91.08
61961;BME280;47923;42.506;24.192;2024-03-17T03:10:59;95591.97;;;0.48;91.04
61961;BME280;47923;42.506;24.192;2024-03-17T03:13:24;95493.41;;;-0.40;90.63
61961;BME280;47923;42.506;24.192;2024-03-17T03:15:51;95494.28;;;-0.25;90.66
61961;BME280;47923;42.506;24.192;2024-03-17T03:18:16;95669.94;;;0.95;90.81
61961;BME280;47923;42.506;24.192;2024-03-17T03:20:42;95617.34;;;0.59;91.04
61961;BME280;47923;42.506;24.192;2024-03-17T03:23:08;95601.25;;;0.50;90.71
61961;BME280;47923;42.506;24.192;2024-03-17T03:25:34;95705.69;;;1.21;90.76
61961;BME280;47923;42.506;24.192;2024-03-17T03:27:59;95777.47;;;1.73;90.41
61961;BME280;47923;42.506;24.192;2024-03-17T03:30:25;95676.59;;;1.11;90.28
61961;BME280;47923;42.506;24.192;2024-03-17T03:32:50;95604.59;;;0.56;89.98
61961;BME280;47923;42.506;24.192;2024-03-17T03:35:16;95634.19;;;0.68;90.26
61961;BME280;47923;42.506;24.192;2024-03-17T03:37:42;95783.59;;;1.73;90.26
61961;BME280;47923;42.506;24.192;2024-03-17T03:40:10;95559.50;;;0.18;90.13
61961;BME280;47923;42.506;24.192;2024-03-17T03:42:46;95691.34;;;1.03;90.62
61961;BME280;47923;42.506;24.192;2024-03-17T03:45:12;95691.97;;;1.14;90.45
61961;BME280;47923;42.506;24.192;2024-03-17T03:47:39;95549.56;;;0.24;89.99
61961;BME280;47923;42.506;24.192;2024-03-17T03:50:14;95685.56;;;1.15;90.11
61961;BME280;47923;42.506;24.192;2024-03-17T03:52:39;95612.94;;;0.68;90.21
61961;BME280;47923;42.506;24.192;2024-03-17T03:55:07;95746.59;;;1.58;90.29
61961;BME280;47923;42.506;24.192;2024-03-17T03:57:38;95426.28;;;-0.59;89.21
61961;BME280;47923;42.506;24.192;2024-03-17T04:00:04;95632.81;;;0.71;90.09
61961;BME280;47923;42.506;24.192;2024-03-17T04:02:44;95719.63;;;1.46;90.17
61961;BME280;47923;42.506;24.192;2024-03-17T04:05:10;95800.72;;;2.00;90.46
61961;BME280;47923;42.506;24.192;2024-03-17T04:07:36;95810.88;;;1.98;90.48
61961;BME280;47923;42.506;24.192;2024-03-17T04:10:03;95650.41;;;0.86;90.15
61961;BME280;47923;42.506;24.192;2024-03-17T04:12:29;95622.56;;;0.64;90.44
61961;BME280;47923;42.506;24.192;2024-03-17T04:14:58;95526.75;;;0.04;90.52
61961;BME280;47923;42.506;24.192;2024-03-17T04:17:24;95808.19;;;1.84;90.97
61961;BME280;47923;42.506;24.192;2024-03-17T04:19:53;95751.94;;;1.25;90.64
61961;BME280;47923;42.506;24.192;2024-03-17T04:22:20;95813.69;;;1.74;90.77
61961;BME280;47923;42.506;24.192;2024-03-17T04:24:46;95805.09;;;1.63;90.88
61961;BME280;47923;42.506;24.192;2024-03-17T04:27:13;95648.03;;;0.33;90.72
61961;BME280;47923;42.506;24.192;2024-03-17T04:29:39;95813.88;;;1.63;90.95
61961;BME280;47923;42.506;24.192;2024-03-17T04:32:06;95825.09;;;1.60;90.98
61961;BME280;47923;42.506;24.192;2024-03-17T04:34:31;95665.25;;;0.35;90.98
61961;BME280;47923;42.506;24.192;2024-03-17T04:36:57;95773.06;;;1.35;90.95
61961;BME280;47923;42.506;24.192;2024-03-17T04:39:24;95834.13;;;1.78;91.18
61961;BME280;47923;42.506;24.192;2024-03-17T04:41:50;95745.38;;;1.04;91.31
61961;BME280;47923;42.506;24.192;2024-03-17T04:44:16;95837.88;;;1.77;91.21
61961;BME280;47923;42.506;24.192;2024-03-17T04:46:42;95673.91;;;0.46;90.95
61961;BME280;47923;42.506;24.192;2024-03-17T04:49:07;95737.88;;;1.06;90.94
61961;BME280;47923;42.506;24.192;2024-03-17T04:51:33;95606.00;;;0.35;90.97
61961;BME280;47923;42.506;24.192;2024-03-17T04:53:59;95767.06;;;1.44;90.60
61961;BME280;47923;42.506;24.192;2024-03-17T04:56:25;95809.75;;;1.71;90.27
61961;BME280;47923;42.506;24.192;2024-03-17T04:58:50;95791.13;;;1.85;90.23
61961;BME280;47923;42.506;24.192;2024-03-17T05:01:16;95665.56;;;1.18;89.67
61961;BME280;47923;42.506;24.192;2024-03-17T05:03:41;95658.53;;;1.08;88.60
61961;BME280;47923;42.506;24.192;2024-03-17T05:06:07;95747.19;;;1.82;89.06
61961;BME280;47923;42.506;24.192;2024-03-17T05:08:33;95871.53;;;2.74;88.89
61961;BME280;47923;42.506;24.192;2024-03-17T05:11:04;95592.63;;;1.05;88.39
61961;BME280;47923;42.506;24.192;2024-03-17T05:13:30;95719.59;;;2.06;87.44
61961;BME280;47923;42.506;24.192;2024-03-17T05:15:56;95505.09;;;0.90;86.26
61961;BME280;47923;42.506;24.192;2024-03-17T05:18:22;95799.91;;;3.04;85.59
61961;BME280;47923;42.506;24.192;2024-03-17T05:21:08;95862.59;;;3.65;84.23
61961;BME280;47923;42.506;24.192;2024-03-17T05:23:36;95861.50;;;3.88;83.52
61961;BME280;47923;42.506;24.192;2024-03-17T05:26:03;95856.31;;;4.14;82.92
61961;BME280;47923;42.506;24.192;2024-03-17T05:28:31;95554.56;;;2.32;80.84
61961;BME280;47923;42.506;24.192;2024-03-17T05:30:57;95870.72;;;4.76;79.82
61961;BME280;47923;42.506;24.192;2024-03-17T05:33:24;95875.19;;;4.97;77.98
61961;BME280;47923;42.506;24.192;2024-03-17T05:35:57;95866.25;;;5.28;76.78
61961;BME280;47923;42.506;24.192;2024-03-17T05:38:26;95852.25;;;5.48;75.45
61961;BME280;47923;42.506;24.192;2024-03-17T05:41:09;95863.44;;;5.94;73.97
61961;BME280;47923;42.506;24.192;2024-03-17T05:43:36;95859.31;;;5.88;73.47
61961;BME280;47923;42.506;24.192;2024-03-17T05:46:10;95863.78;;;6.48;71.11
61961;BME280;47923;42.506;24.192;2024-03-17T05:48:38;95669.09;;;6.71;66.55
61961;BME280;47923;42.506;24.192;2024-03-17T05:51:08;95774.75;;;7.38;63.55
61961;BME280;47923;42.506;24.192;2024-03-17T05:53:34;95760.75;;;8.23;61.02
61961;BME280;47923;42.506;24.192;2024-03-17T05:56:03;95803.91;;;9.92;54.83
61961;BME280;47923;42.506;24.192;2024-03-17T05:58:29;95867.84;;;11.81;49.62
61961;BME280;47923;42.506;24.192;2024-03-17T06:00:55;95761.50;;;11.81;46.74
61961;BME280;47923;42.506;24.192;2024-03-17T06:03:21;95872.00;;;11.59;48.41
61961;BME280;47923;42.506;24.192;2024-03-17T06:05:47;95800.75;;;10.50;49.94
61961;BME280;47923;42.506;24.192;2024-03-17T06:08:14;95720.44;;;10.82;49.48
61961;BME280;47923;42.506;24.192;2024-03-17T06:10:47;95667.50;;;12.01;45.56
61961;BME280;47923;42.506;24.192;2024-03-17T06:13:14;95738.25;;;13.88;42.41
61961;BME280;47923;42.506;24.192;2024-03-17T06:15:40;95678.66;;;14.54;40.18
61961;BME280;47923;42.506;24.192;2024-03-17T06:18:07;95720.09;;;14.91;39.00
61961;BME280;47923;42.506;24.192;2024-03-17T06:20:40;95793.88;;;14.86;39.61
61961;BME280;47923;42.506;24.192;2024-03-17T06:23:13;95605.50;;;13.83;39.53
61961;BME280;47923;42.506;24.192;2024-03-17T06:25:43;95865.34;;;15.31;40.29
61961;BME280;47923;42.506;24.192;2024-03-17T06:28:09;95815.06;;;14.63;39.93
61961;BME280;47923;42.506;24.192;2024-03-17T06:30:35;95658.34;;;13.93;40.01
61961;BME280;47923;42.506;24.192;2024-03-17T06:33:02;95735.75;;;16.07;38.05
61961;BME280;47923;42.506;24.192;2024-03-17T06:35:27;95818.22;;;18.10;34.58
61961;BME280;47923;42.506;24.192;2024-03-17T06:37:58;95815.41;;;18.87;33.14
61961;BME280;47923;42.506;24.192;2024-03-17T06:40:24;95855.94;;;18.44;34.64
61961;BME280;47923;42.506;24.192;2024-03-17T06:42:50;95814.03;;;19.54;32.79
61961;BME280;47923;42.506;24.192;2024-03-17T06:45:17;95795.88;;;18.85;32.55
61961;BME280;47923;42.506;24.192;2024-03-17T06:47:45;95793.31;;;17.83;34.55
61961;BME280;47923;42.506;24.192;2024-03-17T06:50:11;95869.38;;;18.10;35.67
61961;BME280;47923;42.506;24.192;2024-03-17T06:52:37;95799.75;;;16.98;35.42
61961;BME280;47923;42.506;24.192;2024-03-17T06:55:03;95815.06;;;18.15;35.24
61961;BME280;47923;42.506;24.192;2024-03-17T06:57:29;95886.03;;;18.40;34.31
61961;BME280;47923;42.506;24.192;2024-03-17T06:59:54;95711.75;;;14.67;38.69
61961;BME280;47923;42.506;24.192;2024-03-17T07:02:19;95451.34;;;11.27;42.80
61961;BME280;47923;42.506;24.192;2024-03-17T07:04:46;95894.50;;;17.12;37.99
61961;BME280;47923;42.506;24.192;2024-03-17T07:07:15;95877.22;;;18.85;33.66
61961;BME280;47923;42.506;24.192;2024-03-17T07:09:41;95835.97;;;21.07;30.39
61961;BME280;47923;42.506;24.192;2024-03-17T07:12:10;95734.81;;;21.02;29.23
61961;BME280;47923;42.506;24.192;2024-03-17T07:14:39;95831.09;;;21.42;29.23
61961;BME280;47923;42.506;24.192;2024-03-17T07:17:04;95796.41;;;23.00;27.89
61961;BME280;47923;42.506;24.192;2024-03-17T07:19:30;95750.91;;;23.24;26.74
61961;BME280;47923;42.506;24.192;2024-03-17T07:21:59;95866.97;;;24.88;25.60
61961;BME280;47923;42.506;24.192;2024-03-17T07:24:24;95787.72;;;23.92;25.70
61961;BME280;47923;42.506;24.192;2024-03-17T07:26:50;95813.28;;;24.63;24.96
61961;BME280;47923;42.506;24.192;2024-03-17T07:29:16;95732.09;;;23.93;25.06
61961;BME280;47923;42.506;24.192;2024-03-17T07:31:42;95784.59;;;23.32;25.80
61961;BME280;47923;42.506;24.192;2024-03-17T07:34:07;95864.41;;;24.55;25.84
61961;BME280;47923;42.506;24.192;2024-03-17T07:36:33;95757.31;;;22.00;27.04
61961;BME280;47923;42.506;24.192;2024-03-17T07:38:58;95807.09;;;23.59;26.42
61961;BME280;47923;42.506;24.192;2024-03-17T07:41:24;95813.50;;;23.85;26.06
61961;BME280;47923;42.506;24.192;2024-03-17T07:43:50;95783.22;;;23.98;25.44
61961;BME280;47923;42.506;24.192;2024-03-17T07:46:15;95762.56;;;24.57;24.90
61961;BME280;47923;42.506;24.192;2024-03-17T07:48:42;95787.75;;;24.72;25.01
61961;BME280;47923;42.506;24.192;2024-03-17T07:51:15;95803.59;;;25.31;24.55
61961;BME280;47923;42.506;24.192;2024-03-17T07:53:46;95786.97;;;24.84;25.30
61961;BME280;47923;42.506;24.192;2024-03-17T07:56:15;95716.56;;;26.33;23.26
61961;BME280;47923;42.506;24.192;2024-03-17T07:58:43;95744.00;;;27.66;21.88
61961;BME280;47923;42.506;24.192;2024-03-17T08:01:09;95823.91;;;27.99;21.99
61961;BME280;47923;42.506;24.192;2024-03-17T08:03:36;95821.22;;;29.02;21.49
61961;BME280;47923;42.506;24.192;2024-03-17T08:06:04;95743.09;;;28.90;21.00
61961;BME280;47923;42.506;24.192;2024-03-17T08:08:30;95605.34;;;27.11;21.63
61961;BME280;47923;42.506;24.192;2024-03-17T08:10:56;95644.63;;;26.51;21.68
61961;BME280;47923;42.506;24.192;2024-03-17T08:13:22;95826.13;;;25.90;24.31
61961;BME280;47923;42.506;24.192;2024-03-17T08:15:56;95688.38;;;26.25;23.39
61961;BME280;47923;42.506;24.192;2024-03-17T08:18:22;95748.66;;;25.55;24.26
61961;BME280;47923;42.506;24.192;2024-03-17T08:20:48;95613.88;;;24.90;24.05
61961;BME280;47923;42.506;24.192;2024-03-17T08:23:13;95689.34;;;25.34;23.39
61961;BME280;47923;42.506;24.192;2024-03-17T08:25:39;95622.03;;;26.62;22.03
61961;BME280;47923;42.506;24.192;2024-03-17T08:28:05;95795.63;;;28.28;21.82
61961;BME280;47923;42.506;24.192;2024-03-17T08:30:31;95695.28;;;28.35;20.95
61961;BME280;47923;42.506;24.192;2024-03-17T08:32:57;95621.88;;;27.75;20.41
61961;BME280;47923;42.506;24.192;2024-03-17T08:35:22;95617.66;;;27.10;20.88
61961;BME280;47923;42.506;24.192;2024-03-17T08:37:48;95680.97;;;28.18;21.03
61961;BME280;47923;42.506;24.192;2024-03-17T08:40:13;95726.13;;;29.12;19.50
61961;BME280;47923;42.506;24.192;2024-03-17T08:42:39;95656.41;;;29.55;19.08
61961;BME280;47923;42.506;24.192;2024-03-17T08:45:05;95668.44;;;27.80;20.31
61961;BME280;47923;42.506;24.192;2024-03-17T08:47:31;95701.34;;;28.67;21.11
61961;BME280;47923;42.506;24.192;2024-03-17T08:49:56;95665.09;;;27.12;21.40
61961;BME280;47923;42.506;24.192;2024-03-17T08:52:23;95601.16;;;27.25;20.71
61961;BME280;47923;42.506;24.192;2024-03-17T08:54:48;95729.28;;;26.21;22.28
61961;BME280;47923;42.506;24.192;2024-03-17T08:57:16;95659.81;;;26.96;21.76
61961;BME280;47923;42.506;24.192;2024-03-17T08:59:42;95739.88;;;26.94;21.95
61961;BME280;47923;42.506;24.192;2024-03-17T09:02:12;95777.44;;;27.35;20.92
61961;BME280;47923;42.506;24.192;2024-03-17T09:04:39;95754.41;;;26.36;20.31
61961;BME280;47923;42.506;24.192;2024-03-17T09:07:04;95720.09;;;25.58;21.51
61961;BME280;47923;42.506;24.192;2024-03-17T09:09:30;95652.41;;;23.41;23.23
61961;BME280;47923;42.506;24.192;2024-03-17T09:11:55;95717.00;;;23.98;22.32
61961;BME280;47923;42.506;24.192;2024-03-17T09:14:21;95655.81;;;25.11;20.46
61961;BME280;47923;42.506;24.192;2024-03-17T09:16:47;95464.56;;;25.03;19.37
61961;BME280;47923;42.506;24.192;2024-03-17T09:19:13;95532.53;;;24.91;19.73
61961;BME280;47923;42.506;24.192;2024-03-17T09:21:38;95662.69;;;24.08;21.01
61961;BME280;47923;42.506;24.192;2024-03-17T09:24:05;95651.22;;;23.96;21.67
61961;BME280;47923;42.506;24.192;2024-03-17T09:26:33;95732.16;;;23.77;21.54
61961;BME280;47923;42.506;24.192;2024-03-17T09:28:59;95535.28;;;21.68;22.48
61961;BME280;47923;42.506;24.192;2024-03-17T09:31:25;95553.56;;;22.85;22.50
61961;BME280;47923;42.506;24.192;2024-03-17T09:33:50;95592.66;;;22.80;21.82
61961;BME280;47923;42.506;24.192;2024-03-17T09:36:16;95588.38;;;23.08;21.90
61961;BME280;47923;42.506;24.192;2024-03-17T09:38:41;95615.44;;;23.26;21.79
61961;BME280;47923;42.506;24.192;2024-03-17T09:41:07;95541.53;;;22.50;21.66
61961;BME280;47923;42.506;24.192;2024-03-17T09:43:34;95683.28;;;25.05;20.92
61961;BME280;47923;42.506;24.192;2024-03-17T09:46:04;95498.81;;;23.41;20.98
61961;BME280;47923;42.506;24.192;2024-03-17T09:48:30;95733.78;;;24.93;20.39
61961;BME280;47923;42.506;24.192;2024-03-17T09:51:00;95627.31;;;25.88;19.29
61961;BME280;47923;42.506;24.192;2024-03-17T09:55:59;95735.31;;;25.76;19.68
61961;BME280;47923;42.506;24.192;2024-03-17T09:58:26;95743.50;;;26.32;19.41
61961;BME280;47923;42.506;24.192;2024-03-17T10:00:51;95608.22;;;24.94;20.03
61961;BME280;47923;42.506;24.192;2024-03-17T10:03:43;95735.19;;;25.79;19.94
61961;BME280;47923;42.506;24.192;2024-03-17T10:06:14;95677.28;;;27.33;18.72
61961;BME280;47923;42.506;24.192;2024-03-17T10:09:00;95673.72;;;27.69;17.51
61961;BME280;47923;42.506;24.192;2024-03-17T10:11:35;95739.53;;;28.48;17.54
61961;BME280;47923;42.506;24.192;2024-03-17T10:14:05;95727.94;;;28.07;17.13
61961;BME280;47923;42.506;24.192;2024-03-17T10:16:34;95602.28;;;25.70;19.49
61961;BME280;47923;42.506;24.192;2024-03-17T10:21:43;95730.31;;;28.42;17.39
61961;BME280;47923;42.506;24.192;2024-03-17T10:24:11;95616.56;;;27.35;17.41
61961;BME280;47923;42.506;24.192;2024-03-17T10:32:01;95689.09;;;28.40;17.25
61961;BME280;47923;42.506;24.192;2024-03-17T10:34:28;95727.22;;;29.30;16.39
61961;BME280;47923;42.506;24.192;2024-03-17T10:37:07;95725.09;;;30.17;16.68
61961;BME280;47923;42.506;24.192;2024-03-17T10:39:36;95730.63;;;29.10;18.31
61961;BME280;47923;42.506;24.192;2024-03-17T10:42:04;95669.22;;;26.89;20.94
61961;BME280;47923;42.506;24.192;2024-03-17T10:44:31;95732.97;;;26.98;20.87
61961;BME280;47923;42.506;24.192;2024-03-17T10:46:58;95650.75;;;24.23;22.90
61961;BME280;47923;42.506;24.192;2024-03-17T10:49:28;95657.63;;;23.52;23.83
61961;BME280;47923;42.506;24.192;2024-03-17T10:52:00;95590.66;;;23.38;23.84
61961;BME280;47923;42.506;24.192;2024-03-17T10:54:27;95427.16;;;22.61;23.22
61961;BME280;47923;42.506;24.192;2024-03-17T10:56:58;95305.75;;;19.66;25.58
61961;BME280;47923;42.506;24.192;2024-03-17T10:59:39;95486.38;;;21.92;25.54
61961;BME280;47923;42.506;24.192;2024-03-17T11:04:42;95640.13;;;23.71;23.94
61961;BME280;47923;42.506;24.192;2024-03-17T11:07:16;95633.75;;;22.09;26.13
61961;BME280;47923;42.506;24.192;2024-03-17T11:09:43;95491.47;;;20.05;27.56
61961;BME280;47923;42.506;24.192;2024-03-17T11:12:44;95706.91;;;22.92;26.19
61961;BME280;47923;42.506;24.192;2024-03-17T11:17:50;95558.75;;;21.16;26.36
61961;BME280;47923;42.506;24.192;2024-03-17T11:20:25;95700.94;;;22.28;26.67
61961;BME280;47923;42.506;24.192;2024-03-17T11:22:52;95560.41;;;21.50;26.66
61961;BME280;47923;42.506;24.192;2024-03-17T11:27:56;95698.22;;;20.62;28.35
61961;BME280;47923;42.506;24.192;2024-03-17T11:47:03;95667.63;;;18.84;31.88
61961;BME280;47923;42.506;24.192;2024-03-17T11:49:33;95694.09;;;18.49;32.56
61961;BME280;47923;42.506;24.192;2024-03-17T11:52:03;95693.88;;;18.81;32.36
61961;BME280;47923;42.506;24.192;2024-03-17T11:54:31;95619.63;;;18.75;30.33
61961;BME280;47923;42.506;24.192;2024-03-17T11:57:11;95615.22;;;18.44;29.95
61961;BME280;47923;42.506;24.192;2024-03-17T11:59:37;95635.41;;;18.12;31.37
61961;BME280;47923;42.506;24.192;2024-03-17T12:02:10;95688.94;;;18.06;33.10
61961;BME280;47923;42.506;24.192;2024-03-17T12:04:42;95551.16;;;16.50;34.00
61961;BME280;47923;42.506;24.192;2024-03-17T12:07:12;95521.44;;;16.80;33.36
61961;BME280;47923;42.506;24.192;2024-03-17T12:09:38;95574.09;;;16.77;33.42
61961;BME280;47923;42.506;24.192;2024-03-17T12:12:09;95572.34;;;17.26;33.31
61961;BME280;47923;42.506;24.192;2024-03-17T12:14:36;95677.03;;;18.34;33.21
61961;BME280;47923;42.506;24.192;2024-03-17T12:17:06;95680.25;;;18.74;32.77
61961;BME280;47923;42.506;24.192;2024-03-17T12:19:36;95675.28;;;19.03;32.06
61961;BME280;47923;42.506;24.192;2024-03-17T12:22:04;95630.50;;;18.83;31.37
61961;BME280;47923;42.506;24.192;2024-03-17T12:24:32;95497.28;;;18.01;31.04
61961;BME280;47923;42.506;24.192;2024-03-17T12:26:59;95673.88;;;19.22;30.76
61961;BME280;47923;42.506;24.192;2024-03-17T12:29:35;95673.91;;;19.52;30.27
61961;BME280;47923;42.506;24.192;2024-03-17T12:34:36;95630.22;;;19.42;29.01
61961;BME280;47923;42.506;24.192;2024-03-17T12:37:02;95663.84;;;19.76;29.04
61961;BME280;47923;42.506;24.192;2024-03-17T12:39:31;95670.38;;;20.13;28.67
61961;BME280;47923;42.506;24.192;2024-03-17T12:42:17;95580.84;;;19.76;28.17
61961;BME280;47923;42.506;24.192;2024-03-17T12:44:50;95464.94;;;18.64;28.42
61961;BME280;47923;42.506;24.192;2024-03-17T12:47:20;95650.75;;;19.87;28.58
61961;BME280;47923;42.506;24.192;2024-03-17T12:49:51;95556.56;;;18.86;28.33
61961;BME280;47923;42.506;24.192;2024-03-17T12:52:24;95656.06;;;19.71;28.43
61961;BME280;47923;42.506;24.192;2024-03-17T12:55:18;95601.34;;;19.03;28.43
61961;BME280;47923;42.506;24.192;2024-03-17T13:00:56;95621.50;;;17.19;36.30
61961;BME280;47923;42.506;24.192;2024-03-17T13:03:33;95646.59;;;16.82;36.88
61961;BME280;47923;42.506;24.192;2024-03-17T13:06:00;95643.09;;;16.60;37.55
61961;BME280;47923;42.506;24.192;2024-03-17T13:08:28;95469.50;;;15.25;36.55
61961;BME280;47923;42.506;24.192;2024-03-17T13:10:53;95546.19;;;16.09;36.98
61961;BME280;47923;42.506;24.192;2024-03-17T13:13:19;95451.63;;;15.60;34.94
61961;BME280;47923;42.506;24.192;2024-03-17T13:15:45;95594.00;;;16.49;35.64
61961;BME280;47923;42.506;24.192;2024-03-17T13:18:16;95456.69;;;15.36;37.52
61961;BME280;47923;42.506;24.192;2024-03-17T13:20:43;95640.34;;;16.74;37.40
61961;BME280;47923;42.506;24.192;2024-03-17T13:23:09;95461.75;;;15.81;36.56
61961;BME280;47923;42.506;24.192;2024-03-17T13:25:34;95541.06;;;16.36;35.89
61961;BME280;47923;42.506;24.192;2024-03-17T13:28:02;95643.03;;;16.92;34.71
61961;BME280;47923;42.506;24.192;2024-03-17T13:30:29;95473.81;;;15.58;35.18
61961;BME280;47923;42.506;24.192;2024-03-17T13:32:56;95401.84;;;15.13;34.65
61961;BME280;47923;42.506;24.192;2024-03-17T13:35:29;95639.19;;;16.61;33.55
61961;BME280;47923;42.506;24.192;2024-03-17T13:37:56;95427.91;;;15.25;33.35